createdAt,value
2023-02-11T00:00:58.616Z,36.65
2023-02-11T00:03:27.238Z,35.85
2023-02-11T00:06:00.762Z,36.38
2023-02-11T00:08:27.462Z,35.78
2023-02-11T00:10:56.149Z,35.17
2023-02-11T00:13:24.073Z,35.83
2023-02-11T00:15:51.198Z,34.90
2023-02-11T00:18:17.991Z,33.83
2023-02-11T00:20:44.507Z,35.35
2023-02-11T00:23:11.194Z,34.85
2023-02-11T00:25:45.244Z,36.05
2023-02-11T00:28:12.230Z,35.63
2023-02-11T00:30:39.039Z,35.50
2023-02-11T00:33:05.798Z,34.17
2023-02-11T00:35:32.490Z,35.05
2023-02-11T00:37:59.087Z,34.90
2023-02-11T00:40:25.709Z,35.33
2023-02-11T00:42:52.201Z,36.17
2023-02-11T00:45:20.935Z,35.70
2023-02-11T00:47:47.497Z,34.50
2023-02-11T00:50:14.045Z,36.10
2023-02-11T00:52:40.717Z,34.85
2023-02-11T00:55:08.044Z,35.10
2023-02-11T00:57:34.658Z,34.35
2023-02-11T01:00:01.237Z,35.03
2023-02-11T01:02:27.829Z,33.95
2023-02-11T01:04:54.436Z,35.35
2023-02-11T01:07:21.036Z,36.25
2023-02-11T01:09:47.559Z,35.85
2023-02-11T01:12:14.185Z,35.38
2023-02-11T01:14:40.941Z,35.85
2023-02-11T01:17:08.486Z,33.80
2023-02-11T01:19:36.937Z,33.97
2023-02-11T01:22:03.696Z,35.22
2023-02-11T01:24:30.245Z,35.42
2023-02-11T01:26:57.041Z,35.70
2023-02-11T01:29:23.600Z,36.55
2023-02-11T01:31:50.294Z,36.28
2023-02-11T01:34:16.822Z,36.85
2023-02-11T01:36:43.557Z,36.90
2023-02-11T01:39:10.582Z,40.35
2023-02-11T01:41:37.538Z,36.60
2023-02-11T01:44:28.559Z,38.85
2023-02-11T01:46:55.650Z,36.75
2023-02-11T01:49:27.840Z,35.80
2023-02-11T01:51:56.980Z,37.17
2023-02-11T01:54:48.461Z,38.92
2023-02-11T01:57:25.277Z,36.75
2023-02-11T01:59:57.967Z,39.58
2023-02-11T02:02:33.506Z,39.08
2023-02-11T02:05:31.015Z,39.03
2023-02-11T02:08:21.239Z,38.40
2023-02-11T02:10:53.825Z,37.92
2023-02-11T02:13:20.540Z,38.90
2023-02-11T02:16:00.668Z,40.28
2023-02-11T02:18:43.220Z,39.25
2023-02-11T02:21:28.036Z,38.88
2023-02-11T02:24:15.916Z,41.25
2023-02-11T02:27:00.706Z,39.20
2023-02-11T02:29:48.335Z,39.20
2023-02-11T02:32:33.405Z,38.28
2023-02-11T02:35:17.970Z,36.63
2023-02-11T02:38:01.570Z,37.38
2023-02-11T02:40:50.646Z,38.47
2023-02-11T02:43:18.533Z,37.72
2023-02-11T02:45:45.185Z,37.95
2023-02-11T02:48:29.420Z,38.45
2023-02-11T02:51:11.385Z,38.88
2023-02-11T02:54:08.876Z,39.10
2023-02-11T02:56:55.475Z,38.50
2023-02-11T02:59:49.309Z,38.28
2023-02-11T03:02:31.122Z,37.53
2023-02-11T03:05:21.849Z,37.15
2023-02-11T03:08:15.712Z,37.38
2023-02-11T03:10:46.524Z,36.85
2023-02-11T03:13:18.495Z,36.58
2023-02-11T03:15:50.408Z,38.10
2023-02-11T03:18:21.978Z,37.03
2023-02-11T03:20:53.399Z,37.58
2023-02-11T03:23:34.116Z,36.40
2023-02-11T03:26:14.071Z,35.20
2023-02-11T03:29:28.637Z,36.47
2023-02-11T03:32:16.642Z,36.17
2023-02-11T03:34:49.484Z,35.83
2023-02-11T03:37:32.656Z,36.47
2023-02-11T03:40:06.673Z,36.35
2023-02-11T03:42:42.522Z,35.40
2023-02-11T03:45:12.400Z,36.08
2023-02-11T03:47:43.575Z,35.95
2023-02-11T03:50:11.367Z,35.10
2023-02-11T03:52:38.412Z,35.72
2023-02-11T03:55:11.196Z,34.53
2023-02-11T03:57:38.190Z,35.55
2023-02-11T04:00:06.316Z,35.20
2023-02-11T04:02:36.370Z,35.83
2023-02-11T04:05:06.802Z,36.22
2023-02-11T04:07:34.082Z,36.03
2023-02-11T04:10:00.729Z,36.00
2023-02-11T04:12:27.259Z,34.67
2023-02-11T04:14:53.830Z,35.20
2023-02-11T04:17:20.366Z,33.80
2023-02-11T04:19:46.980Z,34.20
2023-02-11T04:22:13.687Z,34.67
2023-02-11T04:24:40.248Z,35.90
2023-02-11T04:27:06.776Z,34.75
2023-02-11T04:29:33.444Z,34.80
2023-02-11T04:32:00.013Z,33.45
2023-02-11T04:34:26.721Z,34.47
2023-02-11T04:36:53.368Z,35.65
2023-02-11T04:39:19.902Z,34.58
2023-02-11T04:41:46.475Z,35.03
2023-02-11T04:44:13.136Z,36.03
2023-02-11T04:46:39.644Z,34.67
2023-02-11T04:49:06.221Z,35.30
2023-02-11T04:51:33.008Z,36.33
2023-02-11T04:53:59.554Z,35.38
2023-02-11T04:56:26.051Z,36.53
2023-02-11T04:58:52.566Z,35.10
2023-02-11T05:01:19.189Z,35.92
2023-02-11T05:03:45.847Z,36.05
2023-02-11T05:06:12.674Z,37.10
2023-02-11T05:08:39.207Z,36.75
2023-02-11T05:11:06.125Z,36.22
2023-02-11T05:13:32.749Z,37.08
2023-02-11T05:15:59.712Z,37.90
2023-02-11T05:18:26.257Z,36.95
2023-02-11T05:20:52.789Z,36.42
2023-02-11T05:23:19.341Z,37.30
2023-02-11T05:25:45.842Z,36.88
2023-02-11T05:28:12.945Z,34.55
2023-02-11T05:30:39.772Z,36.95
2023-02-11T05:33:06.608Z,34.80
2023-02-11T05:35:34.118Z,34.35
2023-02-11T05:38:00.705Z,35.92
2023-02-11T05:40:27.335Z,34.45
2023-02-11T05:42:53.881Z,33.53
2023-02-11T05:45:20.511Z,34.33
2023-02-11T05:47:47.086Z,33.78
2023-02-11T05:50:13.585Z,36.10
2023-02-11T05:52:40.216Z,33.30
2023-02-11T05:55:07.050Z,34.35
2023-02-11T05:57:33.719Z,33.42
2023-02-11T06:00:00.207Z,34.67
2023-02-11T06:02:26.773Z,34.50
2023-02-11T06:04:53.262Z,34.45
2023-02-11T06:07:19.898Z,34.67
2023-02-11T06:09:46.450Z,34.15
2023-02-11T06:12:13.201Z,34.78
2023-02-11T06:14:39.783Z,35.30
2023-02-11T06:17:06.475Z,33.75
2023-02-11T06:19:33.151Z,34.10
2023-02-11T06:21:59.842Z,35.67
2023-02-11T06:24:48.056Z,34.85
2023-02-11T06:27:12.943Z,35.33
2023-02-11T06:29:39.642Z,35.03
2023-02-11T06:32:06.429Z,34.25
2023-02-11T06:34:33.020Z,35.47
2023-02-11T06:36:59.647Z,34.28
2023-02-11T06:39:26.217Z,34.67
2023-02-11T06:41:53.053Z,33.97
2023-02-11T06:44:19.546Z,34.40
2023-02-11T06:46:46.193Z,33.80
2023-02-11T06:49:13.376Z,34.38
2023-02-11T06:51:40.035Z,33.13
2023-02-11T06:54:07.074Z,33.53
2023-02-11T06:56:34.027Z,34.50
2023-02-11T06:59:01.062Z,34.03
2023-02-11T07:01:28.268Z,33.60
2023-02-11T07:03:55.139Z,31.73
2023-02-11T07:06:24.830Z,31.40
2023-02-11T07:08:51.469Z,32.53
2023-02-11T07:11:26.538Z,32.20
2023-02-11T07:13:56.052Z,32.28
2023-02-11T07:16:23.198Z,32.78
2023-02-11T07:18:50.017Z,30.63
2023-02-11T07:21:20.173Z,32.38
2023-02-11T07:23:48.315Z,32.03
2023-02-11T07:26:18.051Z,31.45
2023-02-11T07:28:45.530Z,30.80
2023-02-11T07:31:20.818Z,31.52
2023-02-11T07:33:47.526Z,32.10
2023-02-11T07:36:18.104Z,31.70
2023-02-11T07:38:45.028Z,33.05
2023-02-11T07:41:17.699Z,30.83
2023-02-11T07:43:44.642Z,32.20
2023-02-11T07:46:16.916Z,33.03
2023-02-11T07:48:43.688Z,31.98
2023-02-11T07:51:15.908Z,31.25
2023-02-11T07:53:42.671Z,30.55
2023-02-11T07:56:10.529Z,31.27
2023-02-11T07:58:37.705Z,30.42
2023-02-11T08:01:06.396Z,30.45
2023-02-11T08:03:34.670Z,29.67
2023-02-11T08:06:06.553Z,30.45
2023-02-11T08:08:33.237Z,30.90
2023-02-11T08:11:06.265Z,30.65
2023-02-11T08:13:33.562Z,30.35
2023-02-11T08:16:00.197Z,31.85
2023-02-11T08:18:26.865Z,31.63
2023-02-11T08:20:53.716Z,30.38
2023-02-11T08:23:20.446Z,31.90
2023-02-11T08:25:47.081Z,32.15
2023-02-11T08:28:13.819Z,30.83
2023-02-11T08:30:40.486Z,29.52
2023-02-11T08:33:07.017Z,29.55
2023-02-11T08:35:35.600Z,30.65
2023-02-11T08:38:02.238Z,31.63
2023-02-11T08:40:28.858Z,30.95
2023-02-11T08:42:55.517Z,30.27
2023-02-11T08:45:22.122Z,29.55
2023-02-11T08:47:48.686Z,29.02
2023-02-11T08:50:15.349Z,29.65
2023-02-11T08:52:41.925Z,29.70
2023-02-11T08:55:08.656Z,30.38
2023-02-11T08:57:35.218Z,30.48
2023-02-11T09:00:01.820Z,29.33
2023-02-11T09:02:28.448Z,30.20
2023-02-11T09:04:55.036Z,29.52
2023-02-11T09:07:21.629Z,30.20
2023-02-11T09:09:48.164Z,29.67
2023-02-11T09:12:14.794Z,30.20
2023-02-11T09:14:42.001Z,31.27
2023-02-11T09:17:08.526Z,30.95
2023-02-11T09:19:35.354Z,29.48
2023-02-11T09:22:02.071Z,30.45
2023-02-11T09:24:28.613Z,28.95
2023-02-11T09:26:55.164Z,29.58
2023-02-11T09:29:21.695Z,29.58
2023-02-11T09:31:48.475Z,28.92
2023-02-11T09:34:15.982Z,30.73
2023-02-11T09:36:42.508Z,31.05
2023-02-11T09:39:13.074Z,29.23
2023-02-11T09:41:42.982Z,30.05
2023-02-11T09:44:23.219Z,30.58
2023-02-11T09:46:56.603Z,31.10
2023-02-11T09:49:31.356Z,30.38
2023-02-11T09:52:05.249Z,30.17
2023-02-11T09:54:50.797Z,30.27
2023-02-11T09:57:28.158Z,29.90
2023-02-11T09:59:56.671Z,30.38
2023-02-11T10:02:38.040Z,30.15
2023-02-11T10:05:21.776Z,30.10
2023-02-11T10:07:59.779Z,30.73
2023-02-11T10:10:46.696Z,29.98
2023-02-11T10:13:42.569Z,31.80
2023-02-11T10:16:18.036Z,28.83
2023-02-11T10:19:11.337Z,30.73
2023-02-11T10:21:46.681Z,29.42
2023-02-11T10:24:16.251Z,29.88
2023-02-11T10:26:43.914Z,30.05
2023-02-11T10:29:35.643Z,29.55
2023-02-11T10:32:07.449Z,29.25
2023-02-11T10:34:34.673Z,28.92
2023-02-11T10:37:01.530Z,29.60
2023-02-11T10:39:28.205Z,31.10
2023-02-11T10:42:00.147Z,29.85
2023-02-11T10:44:33.488Z,29.63
2023-02-11T10:47:09.151Z,30.48
2023-02-11T10:49:39.144Z,31.90
2023-02-11T10:52:17.966Z,31.50
2023-02-11T10:54:57.039Z,30.60
2023-02-11T10:57:28.435Z,31.48
2023-02-11T11:00:02.133Z,30.50
2023-02-11T11:02:34.370Z,29.98
2023-02-11T11:05:14.581Z,32.08
2023-02-11T11:07:53.615Z,36.58
2023-02-11T11:10:36.092Z,42.15
2023-02-11T11:13:03.172Z,32.90
2023-02-11T11:15:32.065Z,30.38
2023-02-11T11:18:21.992Z,43.58
2023-02-11T11:21:00.222Z,42.65
2023-02-11T11:23:29.840Z,30.27
2023-02-11T11:26:13.272Z,31.40
2023-02-11T11:28:59.526Z,28.50
2023-02-11T11:31:34.658Z,29.33
2023-02-11T11:34:17.233Z,30.30
2023-02-11T11:36:44.355Z,30.85
2023-02-11T11:39:24.070Z,30.70
2023-02-11T11:42:03.283Z,29.90
2023-02-11T11:44:34.608Z,29.52
2023-02-11T11:47:16.469Z,28.52
2023-02-11T11:49:49.985Z,29.00
2023-02-11T11:52:22.728Z,30.45
2023-02-11T11:55:04.774Z,30.55
2023-02-11T11:57:34.909Z,29.42
2023-02-11T12:00:01.445Z,30.13
2023-02-11T12:02:52.630Z,29.67
2023-02-11T12:05:27.158Z,29.52
2023-02-11T12:08:11.907Z,29.40
2023-02-11T12:10:50.833Z,27.88
2023-02-11T12:13:39.468Z,28.52
2023-02-11T12:16:36.160Z,26.95
2023-02-11T12:19:28.003Z,28.55
2023-02-11T12:22:39.589Z,28.40
2023-02-11T12:25:17.904Z,28.70
2023-02-11T12:28:01.567Z,28.30
2023-02-11T12:31:13.092Z,29.40
2023-02-11T12:34:13.897Z,26.58
2023-02-11T12:36:54.451Z,26.85
2023-02-11T12:39:57.851Z,28.85
2023-02-11T12:42:49.035Z,28.77
2023-02-11T12:45:27.517Z,27.90
2023-02-11T12:48:33.039Z,27.88
2023-02-11T12:51:15.542Z,26.65
2023-02-11T12:53:51.218Z,26.23
2023-02-11T12:56:24.067Z,26.05
2023-02-11T12:58:54.229Z,24.83
2023-02-11T13:01:29.125Z,25.73
2023-02-11T13:04:09.310Z,25.05
2023-02-11T13:06:41.840Z,25.38
2023-02-11T13:09:21.091Z,26.35
2023-02-11T13:11:54.192Z,24.55
2023-02-11T13:14:32.634Z,25.60
2023-02-11T13:16:59.669Z,25.35
2023-02-11T13:19:29.127Z,23.10
2023-02-11T13:22:20.063Z,23.58
2023-02-11T13:25:06.174Z,24.38
2023-02-11T13:27:44.423Z,23.00
2023-02-11T13:30:21.674Z,24.10
2023-02-11T13:32:56.192Z,24.45
2023-02-11T13:35:31.816Z,25.27
2023-02-11T13:38:01.584Z,23.50
2023-02-11T13:40:33.264Z,23.70
2023-02-11T13:43:03.132Z,24.58
2023-02-11T13:45:42.023Z,23.92
2023-02-11T13:48:24.061Z,25.58
2023-02-11T13:50:54.368Z,26.65
2023-02-11T13:53:22.203Z,23.10
2023-02-11T13:55:52.742Z,23.77
2023-02-11T13:58:37.182Z,24.98
2023-02-11T14:01:04.057Z,22.10
2023-02-11T14:03:57.488Z,22.02
2023-02-11T14:06:45.419Z,22.13
2023-02-11T14:09:14.597Z,21.48
2023-02-11T14:11:41.694Z,21.88
2023-02-11T14:14:17.174Z,20.92
2023-02-11T14:17:20.255Z,21.95
2023-02-11T14:19:49.384Z,20.60
2023-02-11T14:22:26.067Z,21.00
2023-02-11T14:24:59.526Z,20.48
2023-02-11T14:27:48.990Z,20.15
2023-02-11T14:30:56.693Z,20.83
2023-02-11T14:33:42.657Z,21.85
2023-02-11T14:36:33.738Z,21.52
2023-02-11T14:39:17.467Z,20.48
2023-02-11T14:41:48.851Z,20.40
2023-02-11T14:44:21.389Z,20.20
2023-02-11T14:46:53.085Z,21.13
2023-02-11T14:49:38.058Z,21.70
2023-02-11T14:52:17.163Z,21.60
2023-02-11T14:54:46.012Z,22.05
2023-02-11T14:57:17.384Z,20.27
2023-02-11T15:00:04.307Z,19.90
2023-02-11T15:02:36.987Z,20.42
2023-02-11T15:05:26.190Z,20.10
2023-02-11T15:07:59.265Z,20.58
2023-02-11T15:10:31.710Z,21.33
2023-02-11T15:13:01.079Z,20.42
2023-02-11T15:15:29.224Z,20.00
2023-02-11T15:17:59.582Z,20.52
2023-02-11T15:20:29.751Z,19.33
2023-02-11T15:23:00.028Z,18.40
2023-02-11T15:25:28.041Z,19.13
2023-02-11T15:27:58.141Z,18.83
2023-02-11T15:30:34.195Z,18.20
2023-02-11T15:33:03.699Z,18.23
2023-02-11T15:35:32.569Z,17.25
2023-02-11T15:38:00.081Z,18.98
2023-02-11T15:40:33.047Z,21.08
2023-02-11T15:43:02.733Z,18.55
2023-02-11T15:45:35.837Z,17.50
2023-02-11T15:48:10.792Z,17.65
2023-02-11T15:50:40.767Z,18.55
2023-02-11T15:53:25.523Z,18.83
2023-02-11T15:55:57.322Z,17.10
2023-02-11T15:58:24.365Z,17.38
2023-02-11T16:00:56.637Z,16.70
2023-02-11T16:03:27.812Z,16.95
2023-02-11T16:05:56.555Z,16.70
2023-02-11T16:08:32.884Z,16.05
2023-02-11T16:11:09.437Z,15.70
2023-02-11T16:13:47.162Z,15.95
2023-02-11T16:16:26.148Z,15.80
2023-02-11T16:19:06.170Z,16.13
2023-02-11T16:21:39.290Z,16.63
2023-02-11T16:24:08.012Z,17.08
2023-02-11T16:26:43.220Z,17.08
2023-02-11T16:29:09.787Z,17.42
2023-02-11T16:31:39.245Z,16.77
2023-02-11T16:34:13.273Z,16.33
2023-02-11T16:36:39.881Z,17.33
2023-02-11T16:39:06.467Z,15.57
2023-02-11T16:41:33.142Z,16.40
2023-02-11T16:43:59.805Z,16.80
2023-02-11T16:46:27.560Z,16.63
2023-02-11T16:48:56.390Z,17.75
2023-02-11T16:51:23.109Z,17.13
2023-02-11T16:53:49.612Z,16.48
2023-02-11T16:56:17.763Z,17.75
2023-02-11T16:58:45.460Z,17.77
2023-02-11T17:01:14.051Z,17.75
2023-02-11T17:03:40.920Z,17.50
2023-02-11T17:06:10.393Z,19.15
2023-02-11T17:08:37.164Z,18.00
2023-02-11T17:11:04.460Z,18.70
2023-02-11T17:13:31.088Z,18.13
2023-02-11T17:15:57.973Z,18.80
2023-02-11T17:18:24.525Z,18.90
2023-02-11T17:20:51.168Z,19.33
2023-02-11T17:23:17.760Z,19.55
2023-02-11T17:25:44.405Z,20.08
2023-02-11T17:28:13.756Z,18.73
2023-02-11T17:30:42.603Z,19.08
2023-02-11T17:33:09.581Z,18.95
2023-02-11T17:35:39.533Z,20.10
2023-02-11T17:38:06.184Z,20.20
2023-02-11T17:40:32.837Z,19.73
2023-02-11T17:42:59.353Z,19.85
2023-02-11T17:45:25.955Z,20.98
2023-02-11T17:47:52.763Z,20.77
2023-02-11T17:50:19.286Z,25.58
2023-02-11T17:52:45.862Z,20.92
2023-02-11T17:55:12.538Z,21.20
2023-02-11T17:57:39.159Z,20.42
2023-02-11T18:00:07.821Z,21.17
2023-02-11T18:02:34.713Z,21.92
2023-02-11T18:05:01.488Z,22.88
2023-02-11T18:07:28.660Z,23.17
2023-02-11T18:09:55.263Z,22.58
2023-02-11T18:12:25.691Z,21.75
2023-02-11T18:14:57.528Z,23.92
2023-02-11T18:17:25.376Z,22.48
2023-02-11T18:19:56.145Z,22.75
2023-02-11T18:22:24.592Z,22.38
2023-02-11T18:24:52.408Z,23.00
2023-02-11T18:27:19.224Z,22.92
2023-02-11T18:29:45.930Z,22.13
2023-02-11T18:32:13.534Z,24.00
2023-02-11T18:34:42.111Z,22.88
2023-02-11T18:37:08.925Z,23.10
2023-02-11T18:39:36.024Z,23.25
2023-02-11T18:42:02.640Z,23.60
2023-02-11T18:44:29.267Z,22.48
2023-02-11T18:46:55.917Z,22.63
2023-02-11T18:49:22.535Z,22.63
2023-02-11T18:51:49.199Z,22.30
2023-02-11T18:54:15.702Z,28.52
2023-02-11T18:56:42.240Z,24.08
2023-02-11T18:59:08.844Z,24.60
2023-02-11T19:01:35.593Z,27.85
2023-02-11T19:04:04.469Z,28.35
2023-02-11T19:06:36.069Z,28.00
2023-02-11T19:09:09.922Z,25.45
2023-02-11T19:11:49.106Z,23.60
2023-02-11T19:14:22.067Z,23.58
2023-02-11T19:16:56.752Z,23.23
2023-02-11T19:19:24.927Z,21.75
2023-02-11T19:21:51.545Z,22.85
2023-02-11T19:24:20.229Z,23.05
2023-02-11T19:26:48.517Z,23.35
2023-02-11T19:29:15.571Z,21.58
2023-02-11T19:31:43.484Z,22.83
2023-02-11T19:34:12.090Z,23.70
2023-02-11T19:36:38.845Z,22.67
2023-02-11T19:39:06.259Z,23.42
2023-02-11T19:41:33.718Z,23.23
2023-02-11T19:44:01.271Z,23.85
2023-02-11T19:46:31.585Z,24.48
2023-02-11T19:48:59.804Z,23.13
2023-02-11T19:51:26.915Z,24.13
2023-02-11T19:53:55.812Z,23.48
2023-02-11T19:56:23.184Z,23.08
2023-02-11T19:58:49.893Z,24.48
2023-02-11T20:01:20.219Z,22.55
2023-02-11T20:03:51.050Z,22.98
2023-02-11T20:06:23.468Z,22.98
2023-02-11T20:08:58.987Z,21.48
2023-02-11T20:11:28.181Z,23.10
2023-02-11T20:13:55.091Z,22.70
2023-02-11T20:16:27.073Z,23.40
2023-02-11T20:19:00.886Z,22.60
2023-02-11T20:21:30.276Z,22.10
2023-02-11T20:23:57.387Z,22.90
2023-02-11T20:26:25.809Z,23.25
2023-02-11T20:28:53.881Z,23.83
2023-02-11T20:31:21.748Z,23.33
2023-02-11T20:33:48.656Z,22.58
2023-02-11T20:36:21.262Z,22.15
2023-02-11T20:38:48.960Z,21.60
2023-02-11T20:41:18.664Z,22.45
2023-02-11T20:43:47.576Z,23.70
2023-02-11T20:46:19.575Z,23.50
2023-02-11T20:48:46.179Z,22.42
2023-02-11T20:51:19.168Z,23.50
2023-02-11T20:53:48.911Z,23.45
2023-02-11T20:56:16.957Z,23.47
2023-02-11T20:58:43.481Z,24.13
2023-02-11T21:01:25.355Z,25.33
2023-02-11T21:03:57.286Z,24.02
2023-02-11T21:06:25.820Z,25.00
2023-02-11T21:08:53.642Z,22.85
2023-02-11T21:11:20.848Z,23.92
2023-02-11T21:13:48.684Z,24.02
2023-02-11T21:16:17.599Z,23.17
2023-02-11T21:18:44.192Z,24.08
2023-02-11T21:21:10.734Z,24.10
2023-02-11T21:23:39.572Z,24.17
2023-02-11T21:26:09.871Z,24.80
2023-02-11T21:28:39.818Z,23.70
2023-02-11T21:31:07.993Z,24.63
2023-02-11T21:33:34.742Z,24.52
2023-02-11T21:36:03.961Z,24.08
2023-02-11T21:38:31.139Z,23.15
2023-02-11T21:41:04.217Z,23.27
2023-02-11T21:43:31.215Z,24.10
2023-02-11T21:45:57.946Z,24.92
2023-02-11T21:48:25.799Z,23.73
2023-02-11T21:50:54.173Z,24.65
2023-02-11T21:53:20.776Z,24.35
2023-02-11T21:55:47.320Z,24.38
2023-02-11T21:58:14.415Z,25.15
2023-02-11T22:00:41.036Z,24.55
2023-02-11T22:03:07.684Z,24.05
2023-02-11T22:05:34.568Z,23.77
2023-02-11T22:08:01.077Z,25.48
2023-02-11T22:10:27.651Z,25.00
2023-02-11T22:12:54.199Z,26.55
2023-02-11T22:15:20.744Z,26.42
2023-02-11T22:17:47.252Z,27.25
2023-02-11T22:20:16.423Z,27.17
2023-02-11T22:22:43.038Z,25.63
2023-02-11T22:25:09.678Z,25.00
2023-02-11T22:27:38.259Z,25.30
2023-02-11T22:30:05.634Z,27.15
2023-02-11T22:32:32.118Z,26.05
2023-02-11T22:34:58.808Z,25.75
2023-02-11T22:37:25.379Z,27.35
2023-02-11T22:39:52.300Z,26.45
2023-02-11T22:42:18.936Z,26.58
2023-02-11T22:44:45.653Z,27.05
2023-02-11T22:47:12.327Z,25.15
2023-02-11T22:49:40.801Z,26.23
2023-02-11T22:52:07.656Z,23.35
2023-02-11T22:54:36.604Z,24.92
2023-02-11T22:57:03.338Z,26.10
2023-02-11T22:59:31.314Z,25.83
2023-02-11T23:01:58.084Z,24.88
2023-02-11T23:04:24.720Z,24.38
2023-02-11T23:06:51.316Z,25.25
2023-02-11T23:09:18.006Z,24.02
2023-02-11T23:11:44.666Z,26.05
2023-02-11T23:14:12.262Z,25.95
2023-02-11T23:16:39.565Z,27.30
2023-02-11T23:19:08.749Z,24.13
2023-02-11T23:21:37.646Z,24.20
2023-02-11T23:24:11.112Z,25.13
2023-02-11T23:26:39.437Z,25.25
2023-02-11T23:29:07.088Z,26.05
2023-02-11T23:31:40.321Z,24.10
2023-02-11T23:34:08.186Z,23.63
2023-02-11T23:36:34.863Z,24.80
2023-02-11T23:39:01.769Z,24.75
2023-02-11T23:41:28.334Z,25.75
2023-02-11T23:43:57.094Z,25.35
2023-02-11T23:46:25.632Z,25.30
2023-02-11T23:48:52.614Z,24.90
2023-02-11T23:51:19.871Z,25.00
2023-02-11T23:53:49.086Z,24.67
2023-02-11T23:56:19.407Z,25.63
2023-02-11T23:58:49.348Z,26.75
